createdAt,value
2023-02-28T00:01:40.553Z,3.30
2023-02-28T00:04:10.170Z,3.40
2023-02-28T00:06:39.415Z,3.43
2023-02-28T00:09:13.141Z,3.47
2023-02-28T00:11:42.466Z,3.20
2023-02-28T00:14:13.850Z,3.07
2023-02-28T00:16:45.454Z,3.53
2023-02-28T00:19:14.185Z,2.93
2023-02-28T00:21:41.729Z,3.00
2023-02-28T00:24:10.984Z,3.20
2023-02-28T00:26:40.099Z,3.53
2023-02-28T00:29:06.930Z,3.00
2023-02-28T00:31:36.290Z,3.10
2023-02-28T00:34:07.389Z,3.40
2023-02-28T00:36:39.180Z,3.93
2023-02-28T00:39:06.132Z,3.60
2023-02-28T00:41:35.175Z,3.50
2023-02-28T00:44:07.038Z,3.00
2023-02-28T00:46:36.204Z,3.07
2023-02-28T00:49:07.616Z,3.10
2023-02-28T00:51:36.204Z,2.90
2023-02-28T00:54:05.626Z,3.60
2023-02-28T00:56:32.625Z,2.80
2023-02-28T00:59:01.590Z,2.80
2023-02-28T01:01:31.454Z,3.17
2023-02-28T01:03:59.231Z,3.80
2023-02-28T01:06:26.244Z,3.60
2023-02-28T01:08:54.021Z,3.63
2023-02-28T01:11:25.902Z,3.47
2023-02-28T01:13:53.835Z,3.13
2023-02-28T01:16:20.774Z,3.27
2023-02-28T01:18:48.287Z,3.33
2023-02-28T01:21:24.331Z,3.30
2023-02-28T01:23:51.604Z,3.20
2023-02-28T01:26:25.423Z,3.60
2023-02-28T01:28:54.873Z,3.60
2023-02-28T01:31:26.030Z,3.23
2023-02-28T01:34:00.626Z,3.40
2023-02-28T01:36:29.987Z,3.80
2023-02-28T01:38:59.088Z,3.30
2023-02-28T01:41:32.851Z,3.10
2023-02-28T01:44:41.786Z,3.37
2023-02-28T01:47:08.724Z,3.20
2023-02-28T01:49:35.670Z,3.90
2023-02-28T01:52:05.064Z,3.63
2023-02-28T01:54:35.454Z,3.40
2023-02-28T01:57:12.442Z,3.33
2023-02-28T02:00:08.413Z,3.57
2023-02-28T02:02:45.364Z,3.53
2023-02-28T02:05:18.276Z,4.17
2023-02-28T02:07:53.062Z,3.80
2023-02-28T02:10:30.151Z,3.63
2023-02-28T02:13:21.017Z,3.70
2023-02-28T02:16:22.950Z,3.77
2023-02-28T02:19:38.917Z,3.70
2023-02-28T02:22:48.793Z,3.33
2023-02-28T02:25:35.860Z,3.77
2023-02-28T02:28:45.485Z,3.37
2023-02-28T02:31:31.176Z,3.80
2023-02-28T02:34:40.024Z,3.47
2023-02-28T02:37:29.941Z,3.17
2023-02-28T02:40:15.488Z,3.33
2023-02-28T02:42:59.769Z,3.90
2023-02-28T02:45:38.105Z,3.47
2023-02-28T02:48:16.160Z,3.60
2023-02-28T02:50:57.952Z,3.40
2023-02-28T02:53:40.097Z,3.50
2023-02-28T02:56:16.094Z,3.43
2023-02-28T02:58:50.070Z,3.50
2023-02-28T03:01:28.891Z,3.70
2023-02-28T03:04:05.316Z,4.03
2023-02-28T03:06:32.382Z,3.50
2023-02-28T03:09:03.320Z,3.53
2023-02-28T03:11:34.343Z,3.50
2023-02-28T03:14:23.818Z,3.70
2023-02-28T03:16:58.466Z,3.37
2023-02-28T03:19:56.678Z,4.03
2023-02-28T03:23:00.637Z,3.50
2023-02-28T03:25:39.677Z,3.80
2023-02-28T03:28:26.919Z,3.60
2023-02-28T03:31:29.370Z,3.50
2023-02-28T03:34:20.393Z,3.03
2023-02-28T03:36:54.623Z,3.80
2023-02-28T03:39:37.682Z,3.33
2023-02-28T03:42:23.244Z,3.40
2023-02-28T03:45:03.845Z,3.17
2023-02-28T03:48:01.274Z,3.53
2023-02-28T03:50:40.757Z,3.60
2023-02-28T03:53:22.163Z,3.53
2023-02-28T03:55:57.942Z,2.90
2023-02-28T03:58:48.808Z,3.70
2023-02-28T04:01:39.020Z,3.37
2023-02-28T04:04:11.050Z,3.40
2023-02-28T04:06:41.036Z,3.37
2023-02-28T04:11:56.569Z,4.00
2023-02-28T04:14:23.969Z,3.73
2023-02-28T04:16:51.922Z,4.27
2023-02-28T04:19:23.722Z,3.43
2023-02-28T04:21:54.968Z,3.80
2023-02-28T04:24:25.965Z,4.57
2023-02-28T04:27:00.122Z,3.97
2023-02-28T04:29:33.168Z,4.03
2023-02-28T04:32:06.458Z,4.03
2023-02-28T04:34:35.640Z,4.03
2023-02-28T04:37:13.380Z,3.60
2023-02-28T04:39:42.998Z,3.73
2023-02-28T04:42:13.107Z,4.03
2023-02-28T04:44:42.453Z,3.93
2023-02-28T04:47:14.122Z,3.90
2023-02-28T04:49:42.423Z,4.03
2023-02-28T04:52:11.932Z,3.70
2023-02-28T04:54:41.138Z,3.77
2023-02-28T04:57:08.465Z,4.07
2023-02-28T04:59:35.327Z,4.10
2023-02-28T05:02:07.624Z,3.90
2023-02-28T05:04:40.028Z,4.10
2023-02-28T05:07:07.146Z,4.03
2023-02-28T05:09:36.173Z,4.13
2023-02-28T05:12:03.290Z,3.90
2023-02-28T05:14:32.414Z,4.20
2023-02-28T05:17:01.558Z,4.40
2023-02-28T05:19:32.785Z,4.03
2023-02-28T05:22:03.496Z,3.63
2023-02-28T05:24:32.874Z,3.73
2023-02-28T05:26:59.846Z,4.40
2023-02-28T05:29:29.032Z,4.10
2023-02-28T05:31:55.931Z,3.73
2023-02-28T05:34:25.032Z,4.23
2023-02-28T05:36:51.900Z,3.70
2023-02-28T05:39:20.757Z,3.63
2023-02-28T05:41:49.868Z,3.57
2023-02-28T05:44:18.783Z,3.73
2023-02-28T05:46:48.022Z,4.13
2023-02-28T05:49:17.257Z,3.33
2023-02-28T05:51:46.361Z,3.87
2023-02-28T05:54:18.545Z,3.50
2023-02-28T05:56:46.606Z,3.43
2023-02-28T05:59:18.172Z,3.90
2023-02-28T06:01:49.136Z,3.80
2023-02-28T06:04:31.112Z,3.73
2023-02-28T06:06:59.361Z,3.40
2023-02-28T06:09:26.183Z,4.00
2023-02-28T06:11:53.156Z,3.33
2023-02-28T06:14:29.150Z,3.83
2023-02-28T06:16:57.919Z,3.17
2023-02-28T06:19:29.550Z,3.33
2023-02-28T06:22:00.912Z,3.80
2023-02-28T06:24:34.451Z,4.00
2023-02-28T06:27:06.613Z,3.20
2023-02-28T06:29:37.042Z,3.53
2023-02-28T06:32:08.496Z,3.67
2023-02-28T06:34:37.691Z,3.80
2023-02-28T06:37:07.046Z,3.70
2023-02-28T06:39:38.422Z,3.80
2023-02-28T06:42:05.572Z,3.60
2023-02-28T06:44:36.305Z,3.77
2023-02-28T06:47:06.070Z,3.60
2023-02-28T06:49:40.037Z,3.80
2023-02-28T06:52:12.014Z,3.27
2023-02-28T06:54:41.159Z,3.47
2023-02-28T06:57:14.576Z,3.33
2023-02-28T06:59:43.926Z,3.20
2023-02-28T07:02:13.067Z,3.33
2023-02-28T07:04:41.412Z,3.47
2023-02-28T07:07:10.773Z,3.93
2023-02-28T07:09:41.819Z,4.40
2023-02-28T07:12:10.763Z,3.50
2023-02-28T07:14:42.227Z,3.70
2023-02-28T07:17:13.091Z,3.33
2023-02-28T07:19:42.702Z,3.43
2023-02-28T07:22:09.554Z,3.43
2023-02-28T07:24:39.103Z,3.60
2023-02-28T07:27:13.084Z,3.67
2023-02-28T07:29:39.933Z,3.90
2023-02-28T07:32:09.209Z,3.83
2023-02-28T07:34:38.368Z,3.40
2023-02-28T07:37:07.271Z,3.67
2023-02-28T07:39:34.080Z,3.47
2023-02-28T07:42:00.995Z,4.27
2023-02-28T07:44:30.060Z,3.80
2023-02-28T07:46:56.973Z,4.20
2023-02-28T07:49:23.916Z,3.90
2023-02-28T07:51:53.256Z,3.67
2023-02-28T07:54:20.099Z,4.50
2023-02-28T07:56:49.443Z,4.47
2023-02-28T07:59:18.597Z,3.90
2023-02-28T08:01:47.869Z,4.10
2023-02-28T08:04:14.727Z,3.97
2023-02-28T08:06:41.602Z,4.80
2023-02-28T08:09:08.521Z,4.10
2023-02-28T08:11:37.951Z,4.00
2023-02-28T08:14:04.795Z,3.50
2023-02-28T08:16:31.718Z,4.00
2023-02-28T08:19:00.957Z,4.20
2023-02-28T08:21:30.595Z,3.73
2023-02-28T08:23:57.835Z,3.60
2023-02-28T08:26:29.654Z,4.17
2023-02-28T08:28:57.736Z,3.30
2023-02-28T08:31:28.227Z,3.17
2023-02-28T08:33:57.899Z,4.07
2023-02-28T08:36:29.494Z,3.50
2023-02-28T08:38:57.766Z,4.10
2023-02-28T08:41:29.926Z,3.70
2023-02-28T08:43:59.181Z,4.03
2023-02-28T08:46:26.278Z,3.67
2023-02-28T08:48:55.601Z,2.93
2023-02-28T08:51:27.571Z,3.60
2023-02-28T08:54:00.580Z,3.87
2023-02-28T08:56:30.776Z,3.80
2023-02-28T08:58:58.747Z,3.73
2023-02-28T09:01:32.366Z,3.83
2023-02-28T09:04:03.358Z,3.53
2023-02-28T09:06:35.776Z,3.27
2023-02-28T09:09:04.085Z,4.00
2023-02-28T09:11:34.640Z,3.67
2023-02-28T09:14:04.652Z,3.70
2023-02-28T09:16:34.030Z,3.63
2023-02-28T09:19:03.334Z,3.30
2023-02-28T09:21:32.648Z,3.37
2023-02-28T09:24:01.767Z,3.67
2023-02-28T09:26:34.948Z,3.63
2023-02-28T09:29:10.044Z,3.37
2023-02-28T09:31:36.863Z,3.73
2023-02-28T09:34:10.454Z,3.43
2023-02-28T09:36:45.144Z,4.10
2023-02-28T09:39:15.477Z,3.83
2023-02-28T09:41:54.099Z,4.57
2023-02-28T09:44:45.818Z,3.80
2023-02-28T09:47:37.112Z,3.60
2023-02-28T09:50:24.961Z,3.73
2023-02-28T09:52:52.723Z,4.00
2023-02-28T09:55:47.134Z,3.83
2023-02-28T09:58:36.968Z,3.97
2023-02-28T10:01:27.843Z,3.90
2023-02-28T10:04:06.819Z,4.20
2023-02-28T10:06:53.020Z,4.07
2023-02-28T10:09:36.884Z,3.67
2023-02-28T10:12:06.874Z,3.90
2023-02-28T10:14:40.782Z,3.97
2023-02-28T10:17:17.829Z,4.40
2023-02-28T10:19:52.690Z,4.03
2023-02-28T10:22:58.366Z,3.90
2023-02-28T10:25:29.093Z,3.80
2023-02-28T10:28:19.357Z,4.40
2023-02-28T10:30:54.994Z,4.17
2023-02-28T10:33:36.103Z,4.10
2023-02-28T10:36:07.631Z,4.07
2023-02-28T10:38:38.334Z,4.17
2023-02-28T10:41:37.267Z,3.63
2023-02-28T10:44:26.900Z,3.80
2023-02-28T10:46:54.379Z,3.73
2023-02-28T10:49:30.517Z,4.30
2023-02-28T10:52:01.088Z,3.90
2023-02-28T10:54:41.782Z,3.50
2023-02-28T10:57:25.390Z,4.00
2023-02-28T11:00:17.796Z,3.40
2023-02-28T11:02:49.307Z,3.80
2023-02-28T11:05:36.557Z,3.37
2023-02-28T11:08:19.311Z,3.37
2023-02-28T11:10:58.698Z,3.17
2023-02-28T11:13:52.785Z,3.40
2023-02-28T11:16:32.705Z,3.33
2023-02-28T11:19:17.424Z,3.53
2023-02-28T11:22:01.217Z,3.10
2023-02-28T11:24:51.061Z,3.20
2023-02-28T11:27:50.956Z,2.70
2023-02-28T11:30:42.171Z,3.30
2023-02-28T11:33:52.145Z,2.70
2023-02-28T11:36:27.229Z,3.17
2023-02-28T11:39:10.233Z,3.53
2023-02-28T11:42:02.967Z,3.50
2023-02-28T11:44:29.772Z,3.47
2023-02-28T11:47:41.567Z,3.60
2023-02-28T11:50:26.745Z,2.70
2023-02-28T11:53:29.484Z,3.33
2023-02-28T11:56:26.534Z,3.30
2023-02-28T11:59:53.830Z,4.20
2023-02-28T12:02:43.468Z,3.40
2023-02-28T12:05:55.779Z,4.00
2023-02-28T12:09:04.267Z,3.97
2023-02-28T12:12:16.379Z,3.33
2023-02-28T12:15:26.435Z,3.57
2023-02-28T12:18:19.582Z,3.50
2023-02-28T12:20:58.061Z,3.40
2023-02-28T12:23:43.099Z,3.53
2023-02-28T12:26:17.856Z,3.53
2023-02-28T12:28:55.144Z,3.37
2023-02-28T12:31:30.518Z,3.23
2023-02-28T12:34:16.395Z,3.00
2023-02-28T12:36:48.608Z,3.30
2023-02-28T12:39:48.295Z,3.37
2023-02-28T12:42:34.816Z,2.87
2023-02-28T12:45:59.068Z,3.20
2023-02-28T12:48:39.648Z,3.60
2023-02-28T12:51:08.764Z,3.67
2023-02-28T12:54:14.245Z,3.10
2023-02-28T12:57:11.504Z,3.73
2023-02-28T13:00:14.109Z,3.07
2023-02-28T13:03:38.466Z,3.20
2023-02-28T13:06:38.981Z,3.40
2023-02-28T13:09:18.679Z,3.33
2023-02-28T13:11:57.990Z,3.00
2023-02-28T13:14:27.233Z,3.13
2023-02-28T13:17:16.233Z,3.03
2023-02-28T13:20:07.313Z,3.00
2023-02-28T13:22:42.970Z,3.33
2023-02-28T13:25:35.625Z,3.20
2023-02-28T13:28:12.169Z,3.10
2023-02-28T13:31:00.792Z,3.13
2023-02-28T13:34:07.155Z,3.10
2023-02-28T13:36:38.916Z,2.90
2023-02-28T13:39:36.165Z,3.40
2023-02-28T13:42:23.042Z,3.67
2023-02-28T13:45:05.513Z,4.00
2023-02-28T13:48:05.868Z,3.07
2023-02-28T13:50:41.119Z,3.50
2023-02-28T13:53:17.155Z,3.10
2023-02-28T13:56:27.385Z,3.27
2023-02-28T13:59:25.188Z,2.97
2023-02-28T14:01:52.530Z,3.03
2023-02-28T14:04:47.736Z,2.90
2023-02-28T14:07:29.946Z,3.13
2023-02-28T14:10:09.169Z,3.67
2023-02-28T14:13:04.274Z,2.97
2023-02-28T14:15:34.153Z,3.20
2023-02-28T14:18:14.662Z,3.20
2023-02-28T14:20:44.450Z,3.17
2023-02-28T14:23:35.834Z,3.43
2023-02-28T14:26:35.858Z,2.80
2023-02-28T14:29:02.705Z,3.13
2023-02-28T14:31:39.790Z,3.30
2023-02-28T14:34:33.198Z,3.40
2023-02-28T14:37:11.731Z,3.27
2023-02-28T14:39:45.812Z,3.67
2023-02-28T14:42:47.339Z,3.23
2023-02-28T14:45:31.561Z,3.37
2023-02-28T14:48:00.607Z,3.53
2023-02-28T14:50:36.766Z,3.63
2023-02-28T14:53:04.757Z,4.10
2023-02-28T14:55:36.372Z,3.30
2023-02-28T14:58:09.730Z,4.33
2023-02-28T15:00:48.130Z,3.73
2023-02-28T15:03:32.190Z,3.50
2023-02-28T15:06:03.363Z,3.63
2023-02-28T15:08:37.015Z,3.93
2023-02-28T15:11:13.627Z,3.10
2023-02-28T15:13:47.758Z,3.73
2023-02-28T15:16:24.367Z,4.10
2023-02-28T15:18:59.217Z,3.90
2023-02-28T15:21:37.492Z,3.90
2023-02-28T15:24:34.770Z,3.87
2023-02-28T15:27:25.229Z,4.27
2023-02-28T15:30:21.444Z,3.60
2023-02-28T15:33:14.328Z,4.30
2023-02-28T15:35:41.305Z,3.73
2023-02-28T15:38:28.266Z,4.37
2023-02-28T15:41:01.966Z,3.67
2023-02-28T15:43:38.258Z,3.83
2023-02-28T15:46:12.155Z,3.87
2023-02-28T15:48:57.739Z,4.33
2023-02-28T15:51:31.647Z,4.13
2023-02-28T15:54:08.886Z,4.20
2023-02-28T15:56:45.398Z,4.50
2023-02-28T15:59:37.804Z,3.90
2023-02-28T16:02:11.074Z,4.07
2023-02-28T16:04:57.559Z,4.40
2023-02-28T16:07:28.994Z,5.00
2023-02-28T16:10:01.588Z,3.97
2023-02-28T16:12:35.566Z,5.03
2023-02-28T16:15:21.988Z,4.00
2023-02-28T16:17:51.417Z,4.20
2023-02-28T16:20:29.680Z,4.37
2023-02-28T16:23:02.387Z,4.13
2023-02-28T16:25:45.022Z,4.23
2023-02-28T16:28:35.825Z,4.17
2023-02-28T16:31:09.427Z,4.73
2023-02-28T16:33:40.869Z,4.70
2023-02-28T16:36:13.728Z,5.03
2023-02-28T16:38:43.343Z,4.97
2023-02-28T16:41:19.922Z,5.07
2023-02-28T16:43:54.860Z,4.67
2023-02-28T16:46:28.452Z,4.80
2023-02-28T16:48:57.571Z,4.70
2023-02-28T16:51:29.791Z,5.10
2023-02-28T16:53:56.850Z,4.60
2023-02-28T16:56:26.551Z,4.77
2023-02-28T16:59:01.358Z,4.80
2023-02-28T17:01:30.071Z,5.10
2023-02-28T17:03:57.227Z,4.97
2023-02-28T17:06:29.952Z,5.47
2023-02-28T17:09:02.821Z,4.73
2023-02-28T17:11:29.831Z,5.13
2023-02-28T17:14:00.929Z,4.67
2023-02-28T17:16:34.514Z,5.43
2023-02-28T17:19:07.628Z,5.43
2023-02-28T17:21:35.065Z,5.47
2023-02-28T17:24:05.342Z,4.87
2023-02-28T17:26:34.412Z,5.13
2023-02-28T17:29:01.447Z,4.87
2023-02-28T17:31:32.930Z,4.87
2023-02-28T17:34:02.067Z,5.07
2023-02-28T17:36:29.565Z,4.93
2023-02-28T17:39:02.414Z,5.27
2023-02-28T17:41:31.250Z,5.07
2023-02-28T17:44:02.459Z,4.73
2023-02-28T17:46:34.720Z,4.83
2023-02-28T17:49:01.995Z,5.13
2023-02-28T17:51:28.918Z,5.13
2023-02-28T17:54:00.716Z,5.03
2023-02-28T17:56:28.489Z,5.60
2023-02-28T17:58:57.226Z,5.70
2023-02-28T18:01:26.920Z,5.83
2023-02-28T18:03:57.128Z,5.77
2023-02-28T18:06:50.760Z,5.47
2023-02-28T18:09:23.430Z,5.30
2023-02-28T18:11:56.079Z,5.37
2023-02-28T18:14:31.247Z,5.53
2023-02-28T18:17:00.787Z,5.07
2023-02-28T18:19:30.097Z,5.60
2023-02-28T18:21:59.305Z,5.07
2023-02-28T18:24:28.895Z,5.63
2023-02-28T18:27:02.760Z,5.60
2023-02-28T18:29:31.661Z,5.47
2023-02-28T18:32:03.821Z,5.30
2023-02-28T18:34:32.850Z,6.40
2023-02-28T18:37:02.014Z,5.93
2023-02-28T18:39:32.811Z,5.87
2023-02-28T18:42:01.665Z,5.57
2023-02-28T18:44:33.061Z,5.90
2023-02-28T18:47:02.132Z,6.33
2023-02-28T18:49:33.831Z,6.07
2023-02-28T18:52:02.914Z,5.97
2023-02-28T18:54:30.118Z,6.33
2023-02-28T18:56:57.034Z,5.37
2023-02-28T18:59:26.453Z,5.80
2023-02-28T19:01:58.657Z,4.93
2023-02-28T19:04:27.821Z,5.90
2023-02-28T19:06:57.215Z,5.47
2023-02-28T19:09:26.303Z,6.60
2023-02-28T19:11:58.014Z,5.57
2023-02-28T19:14:24.884Z,6.03
2023-02-28T19:16:54.124Z,5.90
2023-02-28T19:19:23.577Z,5.83
2023-02-28T19:21:50.354Z,6.23
2023-02-28T19:24:20.457Z,6.10
2023-02-28T19:26:47.409Z,6.20
2023-02-28T19:29:16.784Z,7.10
2023-02-28T19:31:45.876Z,5.80
2023-02-28T19:34:14.981Z,5.87
2023-02-28T19:36:41.793Z,5.80
2023-02-28T19:39:13.640Z,5.80
2023-02-28T19:41:42.950Z,5.90
2023-02-28T19:44:09.792Z,6.03
2023-02-28T19:46:39.091Z,6.37
2023-02-28T19:49:10.448Z,5.83
2023-02-28T19:51:38.212Z,6.17
2023-02-28T19:54:07.385Z,6.97
2023-02-28T19:56:36.788Z,5.97
2023-02-28T19:59:04.985Z,6.03
2023-02-28T20:01:36.070Z,6.17
2023-02-28T20:04:05.826Z,6.27
2023-02-28T20:06:35.601Z,6.70
2023-02-28T20:09:04.685Z,6.53
2023-02-28T20:11:33.894Z,6.03
2023-02-28T20:14:05.300Z,6.27
2023-02-28T20:16:34.735Z,6.50
2023-02-28T20:19:06.160Z,6.23
2023-02-28T20:21:35.329Z,6.30
2023-02-28T20:24:02.226Z,6.13
2023-02-28T20:26:31.668Z,6.67
2023-02-28T20:28:58.740Z,7.17
2023-02-28T20:31:30.629Z,6.03
2023-02-28T20:34:03.011Z,5.97
2023-02-28T20:36:32.912Z,7.03
2023-02-28T20:39:02.964Z,6.53
2023-02-28T20:41:29.815Z,7.20
2023-02-28T20:44:02.992Z,6.13
2023-02-28T20:46:32.083Z,7.37
2023-02-28T20:49:01.321Z,7.73
2023-02-28T20:51:30.759Z,6.70
2023-02-28T20:53:59.707Z,7.20
2023-02-28T20:56:27.103Z,7.13
2023-02-28T20:58:58.050Z,6.63
2023-02-28T21:01:31.658Z,6.80
2023-02-28T21:04:08.565Z,7.13
2023-02-28T21:06:42.915Z,7.30
2023-02-28T21:09:16.041Z,7.67
2023-02-28T21:11:47.904Z,7.47
2023-02-28T21:14:17.789Z,6.87
2023-02-28T21:16:47.440Z,6.83
2023-02-28T21:19:18.475Z,7.73
2023-02-28T21:21:48.203Z,7.70
2023-02-28T21:24:20.446Z,6.27
2023-02-28T21:26:48.324Z,7.27
2023-02-28T21:29:19.842Z,7.57
2023-02-28T21:31:50.278Z,7.30
2023-02-28T21:34:21.806Z,7.70
2023-02-28T21:36:48.733Z,7.23
2023-02-28T21:39:30.043Z,7.47
2023-02-28T21:42:04.036Z,7.73
2023-02-28T21:44:34.561Z,8.03
2023-02-28T21:47:04.802Z,7.20
2023-02-28T21:49:31.804Z,8.10
2023-02-28T21:51:59.015Z,7.20
2023-02-28T21:54:28.498Z,7.23
2023-02-28T21:56:59.958Z,7.90
2023-02-28T21:59:27.321Z,7.27
2023-02-28T22:02:00.593Z,7.67
2023-02-28T22:04:27.501Z,7.80
2023-02-28T22:06:59.692Z,7.60
2023-02-28T22:09:29.102Z,7.93
2023-02-28T22:12:00.646Z,8.27
2023-02-28T22:14:32.125Z,8.43
2023-02-28T22:17:01.048Z,7.67
2023-02-28T22:19:32.402Z,7.40
2023-02-28T22:22:01.666Z,7.60
2023-02-28T22:24:30.904Z,7.20
2023-02-28T22:26:58.431Z,8.07
2023-02-28T22:29:27.348Z,7.17
2023-02-28T22:31:56.718Z,8.13
2023-02-28T22:34:26.094Z,7.10
2023-02-28T22:36:55.397Z,7.60
2023-02-28T22:39:22.170Z,7.67
2023-02-28T22:41:49.105Z,7.17
2023-02-28T22:44:22.187Z,7.40
2023-02-28T22:46:56.341Z,8.10
2023-02-28T22:49:24.036Z,8.07
2023-02-28T22:51:53.256Z,8.13
2023-02-28T22:54:20.125Z,7.60
2023-02-28T22:56:46.964Z,7.83
2023-02-28T22:59:16.805Z,8.23
2023-02-28T23:01:47.814Z,8.10
2023-02-28T23:04:14.978Z,7.70
2023-02-28T23:06:45.664Z,7.13
2023-02-28T23:09:18.403Z,7.83
2023-02-28T23:11:48.604Z,8.33
2023-02-28T23:14:20.740Z,7.80
2023-02-28T23:16:56.249Z,8.00
2023-02-28T23:19:29.641Z,7.50
2023-02-28T23:22:01.310Z,7.70
2023-02-28T23:24:32.465Z,8.10
2023-02-28T23:27:04.763Z,8.00
2023-02-28T23:29:37.180Z,7.93
2023-02-28T23:32:08.909Z,7.73
2023-02-28T23:34:42.864Z,7.83
2023-02-28T23:37:09.698Z,7.97
2023-02-28T23:39:36.451Z,8.03
2023-02-28T23:42:06.272Z,7.43
2023-02-28T23:44:33.127Z,7.60
2023-02-28T23:47:04.744Z,8.17
2023-02-28T23:49:31.817Z,7.53
2023-02-28T23:52:00.860Z,7.80
2023-02-28T23:54:28.573Z,7.93
2023-02-28T23:56:55.793Z,7.83
2023-02-28T23:59:31.328Z,7.90
